createdAt,value
2022-12-11T00:00:40.443Z,97.20
2022-12-11T00:03:43.473Z,97.10
2022-12-11T00:06:46.239Z,97.00
2022-12-11T00:09:49.543Z,97.00
2022-12-11T00:12:53.696Z,96.90
2022-12-11T00:15:56.563Z,96.90
2022-12-11T00:18:59.359Z,96.90
2022-12-11T00:22:02.155Z,97.30
2022-12-11T00:25:05.614Z,97.30
2022-12-11T00:28:09.779Z,97.40
2022-12-11T00:31:16.653Z,97.20
2022-12-11T00:34:19.519Z,97.30
2022-12-11T00:37:22.345Z,97.40
2022-12-11T00:40:25.277Z,97.30
2022-12-11T00:43:29.401Z,97.10
2022-12-11T00:46:32.252Z,96.90
2022-12-11T00:49:35.050Z,96.90
2022-12-11T00:52:37.834Z,96.90
2022-12-11T00:55:42.151Z,96.90
2022-12-11T00:58:46.931Z,96.50
2022-12-11T01:01:49.775Z,96.40
2022-12-11T01:04:52.623Z,96.40
2022-12-11T01:07:55.467Z,96.40
2022-12-11T01:11:06.377Z,96.40
2022-12-11T01:14:11.908Z,96.60
2022-12-11T01:17:14.722Z,96.40
2022-12-11T01:20:18.098Z,96.40
2022-12-11T01:23:21.323Z,96.60
2022-12-11T01:26:24.170Z,96.60
2022-12-11T01:29:28.286Z,96.60
2022-12-11T01:32:31.159Z,96.70
2022-12-11T01:35:33.958Z,96.80
2022-12-11T01:38:36.783Z,96.70
2022-12-11T01:41:39.608Z,97.00
2022-12-11T01:45:27.093Z,96.90
2022-12-11T01:48:36.706Z,96.80
2022-12-11T01:51:46.797Z,96.90
2022-12-11T01:54:51.305Z,97.00
2022-12-11T01:57:54.745Z,96.90
2022-12-11T02:00:59.312Z,97.10
2022-12-11T02:04:03.816Z,96.90
2022-12-11T02:07:07.130Z,97.10
2022-12-11T02:10:12.718Z,96.80
2022-12-11T02:13:22.796Z,96.80
2022-12-11T02:16:32.384Z,96.70
2022-12-11T02:19:49.820Z,96.70
2022-12-11T02:23:35.264Z,96.80
2022-12-11T02:26:55.879Z,96.90
2022-12-11T02:30:03.919Z,96.70
2022-12-11T02:33:08.194Z,96.90
2022-12-11T02:36:12.355Z,96.90
2022-12-11T02:39:17.489Z,96.90
2022-12-11T02:42:22.409Z,97.00
2022-12-11T02:45:29.223Z,96.90
2022-12-11T02:48:34.936Z,97.00
2022-12-11T02:51:41.136Z,97.00
2022-12-11T02:54:44.898Z,96.90
2022-12-11T02:57:52.724Z,96.90
2022-12-11T03:00:56.990Z,96.80
2022-12-11T03:03:59.970Z,96.50
2022-12-11T03:07:11.869Z,96.80
2022-12-11T03:10:18.833Z,96.90
2022-12-11T03:13:23.602Z,96.90
2022-12-11T03:16:35.574Z,96.80
2022-12-11T03:19:41.391Z,96.80
2022-12-11T03:22:50.044Z,97.40
2022-12-11T03:25:56.622Z,97.00
2022-12-11T03:29:03.389Z,96.80
2022-12-11T03:32:10.346Z,96.70
2022-12-11T03:35:18.368Z,96.70
2022-12-11T03:38:25.812Z,96.60
2022-12-11T03:41:30.521Z,96.40
2022-12-11T03:44:34.478Z,96.00
2022-12-11T03:47:40.437Z,96.00
2022-12-11T03:50:44.252Z,96.10
2022-12-11T03:53:47.779Z,96.00
2022-12-11T03:56:54.793Z,96.10
2022-12-11T03:59:58.337Z,95.80
2022-12-11T04:03:14.892Z,95.50
2022-12-11T04:06:17.878Z,95.60
2022-12-11T04:09:20.661Z,95.40
2022-12-11T04:12:23.579Z,95.10
2022-12-11T04:15:26.359Z,95.30
2022-12-11T04:18:48.203Z,95.50
2022-12-11T04:22:08.567Z,95.60
2022-12-11T04:25:11.623Z,95.60
2022-12-11T04:28:14.598Z,95.40
2022-12-11T04:31:20.420Z,95.60
2022-12-11T04:34:24.680Z,95.90
2022-12-11T04:37:29.785Z,95.60
2022-12-11T04:40:32.572Z,95.50
2022-12-11T04:43:35.587Z,95.50
2022-12-11T04:46:38.417Z,95.00
2022-12-11T04:49:42.583Z,94.80
2022-12-11T04:52:45.730Z,94.80
2022-12-11T04:55:48.538Z,94.60
2022-12-11T04:58:51.355Z,94.10
2022-12-11T05:01:54.193Z,93.80
2022-12-11T05:04:58.352Z,93.90
2022-12-11T05:08:01.215Z,93.60
2022-12-11T05:11:06.047Z,93.70
2022-12-11T05:14:08.855Z,93.80
2022-12-11T05:17:11.643Z,94.20
2022-12-11T05:20:15.785Z,94.00
2022-12-11T05:23:18.787Z,94.50
2022-12-11T05:26:22.069Z,94.70
2022-12-11T05:29:24.896Z,94.70
2022-12-11T05:32:27.856Z,94.90
2022-12-11T05:35:32.249Z,94.80
2022-12-11T05:38:35.996Z,94.60
2022-12-11T05:41:38.822Z,94.30
2022-12-11T05:44:41.624Z,94.10
2022-12-11T05:47:44.422Z,93.90
2022-12-11T05:50:58.064Z,93.90
2022-12-11T05:54:01.472Z,93.60
2022-12-11T05:57:04.264Z,93.70
2022-12-11T06:00:08.099Z,93.80
2022-12-11T06:03:11.091Z,93.80
2022-12-11T06:06:15.707Z,94.10
2022-12-11T06:09:18.701Z,94.20
2022-12-11T06:12:21.493Z,94.20
2022-12-11T06:15:24.381Z,94.00
2022-12-11T06:18:27.162Z,93.90
2022-12-11T06:21:33.447Z,94.10
2022-12-11T06:24:36.231Z,94.10
2022-12-11T06:27:39.038Z,94.40
2022-12-11T06:30:41.839Z,94.40
2022-12-11T06:33:45.063Z,94.60
2022-12-11T06:36:49.170Z,95.10
2022-12-11T06:39:51.969Z,95.20
2022-12-11T06:42:55.627Z,95.00
2022-12-11T06:46:03.575Z,95.20
2022-12-11T06:49:06.909Z,95.20
2022-12-11T06:52:16.598Z,95.40
2022-12-11T06:55:21.130Z,95.80
2022-12-11T06:58:23.938Z,95.80
2022-12-11T07:01:29.003Z,95.80
2022-12-11T07:04:32.048Z,95.70
2022-12-11T07:07:36.206Z,95.70
2022-12-11T07:10:39.027Z,95.60
2022-12-11T07:13:42.949Z,95.40
2022-12-11T07:16:45.760Z,95.40
2022-12-11T07:19:48.569Z,95.20
2022-12-11T07:22:54.342Z,95.10
2022-12-11T07:25:57.692Z,95.50
2022-12-11T07:29:01.688Z,95.30
2022-12-11T07:32:04.725Z,95.30
2022-12-11T07:35:08.427Z,95.10
2022-12-11T07:38:12.659Z,95.10
2022-12-11T07:41:16.547Z,95.00
2022-12-11T07:44:19.364Z,95.10
2022-12-11T07:47:22.169Z,95.10
2022-12-11T07:50:24.981Z,95.10
2022-12-11T07:53:29.122Z,95.40
2022-12-11T07:56:32.643Z,95.50
2022-12-11T07:59:35.419Z,95.20
2022-12-11T08:02:38.549Z,95.30
2022-12-11T08:05:41.759Z,95.40
2022-12-11T08:08:46.711Z,95.30
2022-12-11T08:11:51.333Z,95.20
2022-12-11T08:14:54.275Z,95.20
2022-12-11T08:17:57.058Z,95.10
2022-12-11T08:20:59.831Z,95.70
2022-12-11T08:24:03.956Z,95.90
2022-12-11T08:27:06.730Z,95.70
2022-12-11T08:30:10.470Z,95.50
2022-12-11T08:33:13.239Z,95.30
2022-12-11T08:36:17.697Z,95.50
2022-12-11T08:39:21.796Z,95.20
2022-12-11T08:42:24.584Z,95.00
2022-12-11T08:45:27.374Z,95.10
2022-12-11T08:48:30.150Z,95.20
2022-12-11T08:51:32.934Z,95.20
2022-12-11T08:54:37.789Z,95.20
2022-12-11T08:57:40.698Z,94.90
2022-12-11T09:00:43.495Z,94.80
2022-12-11T09:03:46.282Z,95.20
2022-12-11T09:06:49.284Z,95.10
2022-12-11T09:09:55.331Z,94.90
2022-12-11T09:12:58.104Z,94.80
2022-12-11T09:16:01.125Z,95.00
2022-12-11T09:19:04.867Z,95.10
2022-12-11T09:22:09.920Z,94.70
2022-12-11T09:25:14.091Z,93.90
2022-12-11T09:28:17.339Z,94.40
2022-12-11T09:31:23.422Z,94.20
2022-12-11T09:34:29.399Z,94.50
2022-12-11T09:37:33.817Z,94.70
2022-12-11T09:40:41.657Z,94.30
2022-12-11T09:43:47.888Z,94.30
2022-12-11T09:46:51.931Z,94.50
2022-12-11T09:50:03.226Z,94.40
2022-12-11T09:53:13.645Z,94.30
2022-12-11T09:56:23.552Z,94.00
2022-12-11T09:59:33.500Z,94.30
2022-12-11T10:02:47.550Z,94.00
2022-12-11T10:06:04.241Z,93.40
2022-12-11T10:09:18.178Z,93.60
2022-12-11T10:12:33.709Z,93.30
2022-12-11T10:15:40.124Z,92.90
2022-12-11T10:18:43.580Z,92.70
2022-12-11T10:21:47.749Z,93.20
2022-12-11T10:25:10.720Z,92.90
2022-12-11T10:28:17.403Z,93.20
2022-12-11T10:31:25.339Z,93.50
2022-12-11T10:34:35.992Z,93.90
2022-12-11T10:37:40.153Z,93.30
2022-12-11T10:40:46.573Z,93.30
2022-12-11T10:43:52.244Z,93.00
2022-12-11T10:47:06.994Z,92.60
2022-12-11T10:50:24.788Z,92.20
2022-12-11T10:53:28.074Z,92.50
2022-12-11T10:56:33.904Z,92.60
2022-12-11T10:59:45.204Z,92.80
2022-12-11T11:02:48.091Z,92.80
2022-12-11T11:05:51.516Z,92.20
2022-12-11T11:08:56.205Z,92.80
2022-12-11T11:12:01.913Z,92.40
2022-12-11T11:15:14.215Z,91.90
2022-12-11T11:18:25.326Z,91.80
2022-12-11T11:21:30.157Z,91.40
2022-12-11T11:24:39.767Z,92.10
2022-12-11T11:27:46.914Z,91.50
2022-12-11T11:31:05.029Z,91.00
2022-12-11T11:34:10.868Z,91.70
2022-12-11T11:37:26.157Z,91.60
2022-12-11T11:40:31.742Z,91.10
2022-12-11T11:43:39.957Z,90.70
2022-12-11T11:46:48.918Z,90.90
2022-12-11T11:50:00.834Z,91.00
2022-12-11T11:53:07.055Z,90.90
2022-12-11T11:56:21.227Z,89.70
2022-12-11T11:59:28.484Z,90.50
2022-12-11T12:02:32.773Z,89.80
2022-12-11T12:05:43.294Z,90.50
2022-12-11T12:08:53.863Z,90.60
2022-12-11T12:12:04.737Z,90.60
2022-12-11T12:15:33.644Z,90.40
2022-12-11T12:18:48.528Z,90.50
2022-12-11T12:21:53.401Z,90.60
2022-12-11T12:25:07.095Z,90.10
2022-12-11T12:28:20.781Z,90.20
2022-12-11T12:31:41.339Z,90.40
2022-12-11T12:35:03.855Z,89.20
2022-12-11T12:38:12.610Z,89.30
2022-12-11T12:41:21.720Z,89.50
2022-12-11T12:44:25.884Z,89.50
2022-12-11T12:47:33.396Z,90.10
2022-12-11T12:50:41.922Z,89.10
2022-12-11T12:53:49.960Z,90.00
2022-12-11T12:56:52.827Z,90.00
2022-12-11T12:59:56.164Z,90.30
2022-12-11T13:03:00.377Z,89.30
2022-12-11T13:06:07.119Z,89.00
2022-12-11T13:09:19.243Z,88.30
2022-12-11T13:12:40.519Z,87.90
2022-12-11T13:15:44.311Z,89.10
2022-12-11T13:18:49.009Z,88.50
2022-12-11T13:21:58.322Z,88.90
2022-12-11T13:25:04.750Z,88.90
2022-12-11T13:28:09.485Z,89.80
2022-12-11T13:31:36.673Z,89.00
2022-12-11T13:34:43.672Z,90.00
2022-12-11T13:37:50.911Z,88.90
2022-12-11T13:40:55.708Z,90.00
2022-12-11T13:43:59.545Z,88.50
2022-12-11T13:47:04.868Z,90.40
2022-12-11T13:50:17.592Z,89.90
2022-12-11T13:53:22.741Z,90.10
2022-12-11T13:56:25.759Z,89.70
2022-12-11T13:59:32.002Z,88.90
2022-12-11T14:02:38.732Z,89.00
2022-12-11T14:05:42.959Z,88.80
2022-12-11T14:08:51.027Z,89.70
2022-12-11T14:11:57.264Z,89.30
2022-12-11T14:15:03.745Z,90.00
2022-12-11T14:18:07.027Z,89.30
2022-12-11T14:21:20.845Z,89.80
2022-12-11T14:24:25.073Z,89.10
2022-12-11T14:27:28.613Z,89.20
2022-12-11T14:30:34.069Z,88.60
2022-12-11T14:33:41.470Z,89.60
2022-12-11T14:36:45.241Z,89.30
2022-12-11T14:39:58.187Z,90.30
2022-12-11T14:43:05.226Z,90.10
2022-12-11T14:46:11.313Z,89.80
2022-12-11T14:49:21.187Z,90.10
2022-12-11T14:52:29.977Z,89.70
2022-12-11T14:55:35.679Z,89.40
2022-12-11T14:58:44.643Z,89.70
2022-12-11T15:01:58.557Z,90.00
2022-12-11T15:05:12.781Z,90.30
2022-12-11T15:08:24.626Z,90.30
2022-12-11T15:11:33.380Z,90.20
2022-12-11T15:14:36.281Z,90.40
2022-12-11T15:17:40.795Z,90.50
2022-12-11T15:20:43.651Z,90.40
2022-12-11T15:23:53.121Z,90.50
2022-12-11T15:27:01.635Z,90.10
2022-12-11T15:30:17.639Z,90.40
2022-12-11T15:33:22.506Z,90.50
2022-12-11T15:36:31.390Z,90.30
2022-12-11T15:39:34.147Z,90.60
2022-12-11T15:42:41.538Z,90.70
2022-12-11T15:45:44.442Z,90.90
2022-12-11T15:48:49.373Z,91.00
2022-12-11T15:51:52.611Z,90.80
2022-12-11T15:54:55.697Z,90.80
2022-12-11T15:58:04.197Z,90.80
2022-12-11T16:01:07.249Z,90.80
2022-12-11T16:04:10.034Z,90.90
2022-12-11T16:07:18.157Z,91.00
2022-12-11T16:10:21.994Z,90.90
2022-12-11T16:13:26.118Z,90.90
2022-12-11T16:16:28.875Z,90.60
2022-12-11T16:19:31.626Z,91.00
2022-12-11T16:22:34.468Z,90.90
2022-12-11T16:25:38.995Z,91.00
2022-12-11T16:28:43.500Z,90.90
2022-12-11T16:31:46.285Z,90.80
2022-12-11T16:34:49.066Z,90.60
2022-12-11T16:37:52.520Z,91.00
2022-12-11T16:41:01.651Z,91.20
2022-12-11T16:44:08.071Z,90.90
2022-12-11T16:47:10.837Z,91.10
2022-12-11T16:50:15.152Z,91.00
2022-12-11T16:53:18.224Z,91.00
2022-12-11T16:56:20.986Z,91.20
2022-12-11T16:59:25.129Z,91.00
2022-12-11T17:02:28.073Z,90.80
2022-12-11T17:05:30.887Z,91.00
2022-12-11T17:08:33.676Z,91.00
2022-12-11T17:11:36.484Z,91.00
2022-12-11T17:14:40.618Z,91.20
2022-12-11T17:17:44.003Z,91.30
2022-12-11T17:20:46.816Z,91.30
2022-12-11T17:23:50.529Z,91.40
2022-12-11T17:26:53.730Z,91.60
2022-12-11T17:29:57.908Z,91.50
2022-12-11T17:33:02.702Z,91.50
2022-12-11T17:36:07.619Z,91.50
2022-12-11T17:39:10.781Z,91.60
2022-12-11T17:42:13.862Z,91.40
2022-12-11T17:45:18.263Z,91.30
2022-12-11T17:48:22.382Z,91.10
2022-12-11T17:51:25.179Z,91.10
2022-12-11T17:54:28.062Z,91.40
2022-12-11T17:57:30.895Z,91.80
2022-12-11T18:00:36.162Z,91.10
2022-12-11T18:03:39.152Z,91.50
2022-12-11T18:06:42.111Z,91.70
2022-12-11T18:09:45.275Z,91.60
2022-12-11T18:12:48.071Z,91.70
2022-12-11T18:16:02.572Z,91.30
2022-12-11T18:19:06.252Z,91.70
2022-12-11T18:22:09.076Z,91.90
2022-12-11T18:25:12.891Z,91.70
2022-12-11T18:28:15.998Z,91.70
2022-12-11T18:31:21.500Z,91.80
2022-12-11T18:34:24.300Z,91.90
2022-12-11T18:37:28.195Z,91.90
2022-12-11T18:40:31.180Z,91.90
2022-12-11T18:43:34.246Z,92.10
2022-12-11T18:46:39.269Z,92.10
2022-12-11T18:49:42.177Z,92.10
2022-12-11T18:52:44.982Z,92.00
2022-12-11T18:55:49.674Z,92.00
2022-12-11T18:58:52.957Z,92.90
2022-12-11T19:01:57.224Z,92.50
2022-12-11T19:05:00.147Z,92.50
2022-12-11T19:08:04.024Z,92.30
2022-12-11T19:11:07.600Z,92.40
2022-12-11T19:14:11.639Z,92.40
2022-12-11T19:17:15.788Z,92.40
2022-12-11T19:20:47.376Z,92.30
2022-12-11T19:23:42.483Z,92.40
2022-12-11T19:26:46.034Z,92.60
2022-12-11T19:29:48.845Z,92.60
2022-12-11T19:32:52.987Z,92.50
2022-12-11T19:36:02.750Z,92.50
2022-12-11T19:39:11.344Z,92.40
2022-12-11T19:42:15.753Z,92.10
2022-12-11T19:45:18.814Z,91.90
2022-12-11T19:48:22.934Z,91.70
2022-12-11T19:51:28.341Z,91.60
2022-12-11T19:54:32.373Z,91.70
2022-12-11T19:57:36.042Z,91.60
2022-12-11T20:00:39.218Z,91.70
2022-12-11T20:03:43.402Z,91.70
2022-12-11T20:06:48.181Z,91.70
2022-12-11T20:09:51.011Z,91.60
2022-12-11T20:12:56.460Z,91.70
2022-12-11T20:15:59.621Z,91.50
2022-12-11T20:19:05.057Z,91.60
2022-12-11T20:22:09.118Z,91.90
2022-12-11T20:25:12.305Z,92.10
2022-12-11T20:28:15.329Z,92.30
2022-12-11T20:31:21.221Z,92.20
2022-12-11T20:34:25.537Z,92.20
2022-12-11T20:37:29.058Z,92.00
2022-12-11T20:40:33.240Z,92.00
2022-12-11T20:43:36.051Z,92.10
2022-12-11T20:46:38.931Z,92.00
2022-12-11T20:49:43.583Z,91.80
2022-12-11T20:52:46.570Z,92.00
2022-12-11T20:55:49.351Z,92.00
2022-12-11T20:58:52.149Z,92.20
2022-12-11T21:01:55.744Z,92.10
2022-12-11T21:04:59.993Z,92.00
2022-12-11T21:08:02.890Z,91.70
2022-12-11T21:11:07.129Z,91.80
2022-12-11T21:14:10.311Z,91.80
2022-12-11T21:17:13.103Z,92.20
2022-12-11T21:20:17.605Z,91.80
2022-12-11T21:23:20.668Z,92.10
2022-12-11T21:26:23.913Z,92.20
2022-12-11T21:29:29.329Z,92.10
2022-12-11T21:32:32.339Z,92.20
2022-12-11T21:35:36.689Z,92.10
2022-12-11T21:38:40.599Z,92.00
2022-12-11T21:41:43.628Z,92.10
2022-12-11T21:48:10.034Z,92.20
2022-12-11T21:51:16.994Z,92.20
2022-12-11T21:54:20.626Z,92.10
2022-12-11T21:57:26.498Z,92.10
2022-12-11T22:00:30.260Z,92.10
2022-12-11T22:03:33.381Z,92.10
2022-12-11T22:06:37.848Z,92.10
2022-12-11T22:09:40.745Z,92.50
2022-12-11T22:12:43.765Z,92.20
2022-12-11T22:15:47.011Z,92.20
2022-12-11T22:18:50.087Z,92.20
2022-12-11T22:21:54.389Z,91.90
2022-12-11T22:24:57.308Z,91.90
2022-12-11T22:28:00.204Z,92.00
2022-12-11T22:31:03.137Z,92.20
2022-12-11T22:34:06.181Z,92.00
2022-12-11T22:37:10.712Z,91.90
2022-12-11T22:40:13.812Z,91.90
2022-12-11T22:43:16.728Z,91.80
2022-12-11T22:46:21.750Z,91.60
2022-12-11T22:49:24.735Z,91.80
2022-12-11T22:52:29.863Z,91.80
2022-12-11T22:55:33.189Z,91.80
2022-12-11T22:58:36.661Z,91.80
2022-12-11T23:01:39.650Z,92.00
2022-12-11T23:04:42.546Z,92.10
2022-12-11T23:07:46.965Z,91.80
2022-12-11T23:10:50.070Z,92.00
2022-12-11T23:13:53.536Z,92.20
2022-12-11T23:16:56.448Z,92.20
2022-12-11T23:20:00.429Z,92.00
2022-12-11T23:23:04.741Z,92.20
2022-12-11T23:26:09.861Z,92.10
2022-12-11T23:29:12.776Z,92.10
2022-12-11T23:32:15.757Z,92.10
2022-12-11T23:35:18.844Z,92.20
2022-12-11T23:38:23.098Z,92.30
2022-12-11T23:41:26.264Z,92.20
2022-12-11T23:44:29.226Z,92.20
2022-12-11T23:47:32.109Z,92.20
2022-12-11T23:50:35.065Z,92.40
2022-12-11T23:53:39.794Z,92.20
2022-12-11T23:56:42.744Z,92.30
2022-12-11T23:59:45.739Z,92.50
